createdAt,value
2023-04-17T00:01:48.427Z,94740.06
2023-04-17T00:04:15.399Z,94721.97
2023-04-17T00:06:45.196Z,94708.19
2023-04-17T00:09:12.888Z,94687.91
2023-04-17T00:11:40.182Z,94686.53
2023-04-17T00:14:07.552Z,94682.84
2023-04-17T00:16:34.230Z,94695.94
2023-04-17T00:19:01.112Z,94705.44
2023-04-17T00:21:30.203Z,94712.88
2023-04-17T00:23:57.075Z,94725.97
2023-04-17T00:26:24.186Z,94737.16
2023-04-17T00:28:55.276Z,94747.00
2023-04-17T00:31:22.170Z,94763.84
2023-04-17T00:33:48.827Z,94775.31
2023-04-17T00:36:15.897Z,94802.34
2023-04-17T00:38:43.030Z,94821.38
2023-04-17T00:41:09.678Z,94824.47
2023-04-17T00:43:36.490Z,94831.78
2023-04-17T00:46:04.183Z,94845.19
2023-04-17T00:48:31.334Z,94848.84
2023-04-17T00:51:02.278Z,94864.31
2023-04-17T00:53:31.404Z,94870.75
2023-04-17T00:56:02.117Z,94883.91
2023-04-17T00:58:28.932Z,94887.69
2023-04-17T01:00:57.035Z,94914.53
2023-04-17T01:03:24.316Z,94928.16
2023-04-17T01:05:52.474Z,94935.34
2023-04-17T01:08:19.375Z,94939.13
2023-04-17T01:10:46.227Z,94936.94
2023-04-17T01:13:13.978Z,94926.75
2023-04-17T01:15:40.986Z,94920.78
2023-04-17T01:18:07.813Z,94906.97
2023-04-17T01:20:35.002Z,94904.09
2023-04-17T01:23:22.195Z,94909.81
2023-04-17T01:25:48.785Z,94895.81
2023-04-17T01:28:15.883Z,94909.94
2023-04-17T01:30:42.456Z,94898.13
2023-04-17T01:33:09.350Z,94889.53
2023-04-17T01:35:35.936Z,94906.25
2023-04-17T01:38:03.128Z,94900.78
2023-04-17T01:40:30.186Z,94910.03
2023-04-17T01:42:56.740Z,94921.59
2023-04-17T01:45:23.796Z,94930.88
2023-04-17T01:47:51.960Z,94948.53
2023-04-17T01:50:18.457Z,94961.25
2023-04-17T01:52:47.028Z,95010.06
2023-04-17T01:55:13.860Z,95005.34
2023-04-17T01:57:40.701Z,95003.53
2023-04-17T02:00:08.342Z,95027.38
2023-04-17T02:02:38.570Z,95048.09
2023-04-17T02:05:05.702Z,95068.53
2023-04-17T02:07:32.219Z,95073.59
2023-04-17T02:09:58.834Z,95089.84
2023-04-17T02:12:25.630Z,95081.50
2023-04-17T02:14:52.608Z,95073.69
2023-04-17T02:17:19.178Z,95102.72
2023-04-17T02:19:46.054Z,95121.59
2023-04-17T02:22:16.285Z,95127.88
2023-04-17T02:24:42.973Z,95126.00
2023-04-17T02:27:09.504Z,95150.34
2023-04-17T02:29:39.826Z,95170.03
2023-04-17T02:32:06.373Z,95190.47
2023-04-17T02:34:32.994Z,95201.47
2023-04-17T02:36:59.666Z,95201.81
2023-04-17T02:39:27.527Z,95223.34
2023-04-17T02:41:55.046Z,95241.63
2023-04-17T02:44:22.051Z,95237.09
2023-04-17T02:46:48.720Z,95240.31
2023-04-17T02:49:18.067Z,95261.44
2023-04-17T02:51:44.897Z,95270.78
2023-04-17T02:54:11.969Z,95287.44
2023-04-17T02:56:38.451Z,95290.09
2023-04-17T02:59:05.145Z,95309.00
2023-04-17T03:01:34.071Z,95296.94
2023-04-17T03:04:01.113Z,95308.09
2023-04-17T03:06:28.578Z,95314.38
2023-04-17T03:08:56.086Z,95330.03
2023-04-17T03:11:24.762Z,95359.72
2023-04-17T03:13:51.243Z,95412.78
2023-04-17T03:16:18.482Z,95452.84
2023-04-17T03:18:45.014Z,95493.78
2023-04-17T03:21:11.648Z,95532.31
2023-04-17T03:23:38.548Z,95574.47
2023-04-17T03:26:05.451Z,95612.16
2023-04-17T03:28:32.632Z,95639.28
2023-04-17T03:31:00.915Z,95671.72
2023-04-17T03:33:27.596Z,95709.00
2023-04-17T03:35:54.277Z,95734.94
2023-04-17T03:38:21.456Z,95758.47
2023-04-17T03:40:49.007Z,95819.28
2023-04-17T03:43:15.702Z,95858.19
2023-04-17T03:45:42.830Z,95887.38
2023-04-17T03:48:09.685Z,95922.03
2023-04-17T03:50:36.307Z,95936.41
2023-04-17T03:53:02.940Z,95969.66
2023-04-17T03:55:29.631Z,95978.56
2023-04-17T03:57:56.326Z,95981.00
2023-04-17T04:00:23.207Z,95974.09
2023-04-17T04:02:49.950Z,95985.03
2023-04-17T04:05:17.162Z,95983.63
2023-04-17T04:07:43.917Z,95986.66
2023-04-17T04:10:10.980Z,95978.13
2023-04-17T04:12:37.573Z,95985.44
2023-04-17T04:15:04.630Z,95987.41
2023-04-17T04:17:35.573Z,95987.41
2023-04-17T04:20:02.214Z,95982.81
2023-04-17T04:22:29.983Z,95986.19
2023-04-17T04:24:57.661Z,95965.72
2023-04-17T04:27:24.157Z,95959.47
2023-04-17T04:29:50.879Z,95979.94
2023-04-17T04:32:17.492Z,95990.47
2023-04-17T04:34:44.864Z,96007.66
2023-04-17T04:37:15.740Z,96040.47
2023-04-17T04:39:43.450Z,96063.94
2023-04-17T04:42:10.986Z,96091.88
2023-04-17T04:44:38.679Z,96127.97
2023-04-17T04:47:05.526Z,96165.44
2023-04-17T04:49:32.134Z,96216.22
2023-04-17T04:51:58.996Z,96248.44
2023-04-17T04:54:25.745Z,96298.81
2023-04-17T04:56:52.458Z,96321.56
2023-04-17T04:59:18.975Z,96360.38
2023-04-17T05:01:45.722Z,96402.94
2023-04-17T05:04:12.613Z,96427.09
2023-04-17T05:06:39.275Z,96471.66
2023-04-17T05:09:05.765Z,96510.91
2023-04-17T05:11:32.832Z,96525.16
2023-04-17T05:13:59.520Z,96557.31
2023-04-17T05:16:26.224Z,96579.63
2023-04-17T05:18:53.123Z,96596.44
2023-04-17T05:21:19.742Z,96590.16
2023-04-17T05:23:47.014Z,96609.72
2023-04-17T05:26:13.908Z,96620.88
2023-04-17T05:28:41.312Z,96629.41
2023-04-17T05:31:08.136Z,96659.06
2023-04-17T05:33:34.707Z,96701.75
2023-04-17T05:36:01.750Z,96710.28
2023-04-17T05:38:28.403Z,96777.34
2023-04-17T05:40:55.600Z,96787.31
2023-04-17T05:43:22.354Z,96798.19
2023-04-17T05:45:49.993Z,96814.81
2023-04-17T05:48:19.578Z,96827.25
2023-04-17T05:50:46.328Z,96848.03
2023-04-17T05:53:13.046Z,96873.38
2023-04-17T05:55:39.939Z,96873.66
2023-04-17T05:58:16.896Z,96876.69
2023-04-17T06:00:50.472Z,96868.16
2023-04-17T06:03:18.139Z,96855.28
2023-04-17T06:05:47.238Z,96839.78
2023-04-17T06:08:14.245Z,96859.88
2023-04-17T06:10:41.267Z,96853.22
2023-04-17T06:13:08.049Z,96864.59
2023-04-17T06:15:34.719Z,96868.06
2023-04-17T06:18:02.323Z,96858.75
2023-04-17T06:20:29.057Z,96878.25
2023-04-17T06:22:57.325Z,96910.88
2023-04-17T06:25:23.838Z,96952.91
2023-04-17T06:27:51.416Z,96966.81
2023-04-17T06:30:17.988Z,96948.63
2023-04-17T06:32:44.760Z,96970.72
2023-04-17T06:35:11.642Z,96982.06
2023-04-17T06:37:38.236Z,97002.06
2023-04-17T06:40:05.130Z,97007.19
2023-04-17T06:42:34.311Z,97012.09
2023-04-17T06:45:06.715Z,97051.00
2023-04-17T06:47:35.749Z,97029.88
2023-04-17T06:50:02.262Z,97019.34
2023-04-17T06:52:28.911Z,97016.66
2023-04-17T06:54:56.101Z,97059.34
2023-04-17T06:57:23.014Z,97052.25
2023-04-17T06:59:49.685Z,97070.34
2023-04-17T07:02:16.706Z,97077.56
2023-04-17T07:04:43.601Z,97074.22
2023-04-17T07:07:10.203Z,97092.84
2023-04-17T07:09:39.807Z,97089.03
2023-04-17T07:12:14.112Z,97088.28
2023-04-17T07:14:42.569Z,97092.94
2023-04-17T07:17:09.281Z,97097.22
2023-04-17T07:19:36.430Z,97088.63
2023-04-17T07:22:03.623Z,97077.59
2023-04-17T07:24:35.244Z,97075.41
2023-04-17T07:27:03.810Z,97080.38
2023-04-17T07:29:30.884Z,97072.66
2023-04-17T07:31:57.530Z,97063.06
2023-04-17T07:34:26.163Z,97065.88
2023-04-17T07:36:53.004Z,97073.78
2023-04-17T07:39:19.552Z,97053.91
2023-04-17T07:41:47.726Z,97076.56
2023-04-17T07:44:14.633Z,97080.69
2023-04-17T07:46:41.637Z,97095.16
2023-04-17T07:49:11.416Z,97082.13
2023-04-17T07:51:41.270Z,97083.44
2023-04-17T07:54:10.376Z,97096.50
2023-04-17T08:00:40.169Z,97094.09
2023-04-17T08:03:07.105Z,97099.38
2023-04-17T08:05:33.955Z,97108.41
2023-04-17T08:08:01.438Z,97117.06
2023-04-17T08:10:28.793Z,97113.06
2023-04-17T08:12:56.570Z,97120.94
2023-04-17T08:15:25.363Z,97140.41
2023-04-17T08:17:58.109Z,97161.81
2023-04-17T08:20:24.774Z,97168.50
2023-04-17T08:22:52.090Z,97205.25
2023-04-17T08:25:19.328Z,97222.16
2023-04-17T08:27:46.159Z,97240.47
2023-04-17T08:30:18.511Z,97270.59
2023-04-17T08:32:47.293Z,97310.19
2023-04-17T08:35:18.089Z,97331.41
2023-04-17T08:37:47.110Z,97358.41
2023-04-17T08:40:14.126Z,97343.75
2023-04-17T08:42:42.044Z,97361.91
2023-04-17T08:45:10.707Z,97394.97
2023-04-17T08:47:40.980Z,97420.91
2023-04-17T08:50:15.665Z,97515.72
2023-04-17T08:52:43.044Z,97559.81
2023-04-17T08:55:11.389Z,97585.91
2023-04-17T08:57:53.342Z,97590.66
2023-04-17T09:00:31.434Z,97600.06
2023-04-17T09:02:59.600Z,97595.66
2023-04-17T09:05:27.213Z,97645.38
2023-04-17T09:08:06.570Z,97671.47
2023-04-17T09:10:38.930Z,97727.97
2023-04-17T09:13:06.509Z,97732.13
2023-04-17T09:15:39.485Z,97729.31
2023-04-17T09:18:06.461Z,97754.72
2023-04-17T09:20:41.122Z,97768.50
2023-04-17T09:23:07.807Z,97813.31
2023-04-17T09:25:34.523Z,97817.69
2023-04-17T09:28:10.825Z,97899.47
2023-04-17T09:30:38.970Z,97964.97
2023-04-17T09:33:09.302Z,98075.19
2023-04-17T09:35:39.879Z,98136.03
2023-04-17T09:38:07.934Z,98168.63
2023-04-17T09:40:39.359Z,98252.44
2023-04-17T09:43:09.634Z,98310.66
2023-04-17T09:45:40.634Z,98376.94
2023-04-17T09:48:09.551Z,98375.94
2023-04-17T09:50:38.650Z,98462.19
2023-04-17T09:53:07.673Z,98573.72
2023-04-17T09:55:36.278Z,98656.03
2023-04-17T09:58:03.771Z,98681.16
2023-04-17T10:00:44.408Z,98721.63
2023-04-17T10:03:14.266Z,98772.47
2023-04-17T10:05:41.801Z,98791.06
2023-04-17T10:08:13.387Z,98771.34
2023-04-17T10:10:41.644Z,98755.75
2023-04-17T10:13:11.619Z,98742.38
2023-04-17T10:15:41.141Z,98744.88
2023-04-17T10:18:23.449Z,98725.09
2023-04-17T10:20:51.487Z,98747.28
2023-04-17T10:23:47.645Z,98742.22
2023-04-17T10:26:27.336Z,98749.97
2023-04-17T10:28:56.166Z,98676.78
2023-04-17T10:31:25.619Z,98753.44
2023-04-17T10:33:55.704Z,98864.38
2023-04-17T10:36:41.548Z,98963.16
2023-04-17T10:39:20.634Z,99289.19
2023-04-17T10:42:03.510Z,99514.63
2023-04-17T10:44:39.150Z,99535.59
2023-04-17T10:47:06.925Z,99601.38
2023-04-17T10:49:48.633Z,99688.16
2023-04-17T10:52:34.571Z,99770.97
2023-04-17T10:55:03.951Z,99816.56
2023-04-17T10:57:49.580Z,99832.97
2023-04-17T11:00:17.178Z,99836.72
2023-04-17T11:02:48.200Z,99841.44
2023-04-17T11:05:14.933Z,99862.66
2023-04-17T11:07:42.852Z,99869.03
2023-04-17T11:10:10.967Z,99867.53
2023-04-17T11:12:39.318Z,99875.50
2023-04-17T11:15:06.438Z,99868.53
2023-04-17T11:17:33.193Z,99880.88
2023-04-17T11:20:00.168Z,99876.09
2023-04-17T11:22:28.370Z,99876.81
2023-04-17T11:24:55.244Z,99867.50
2023-04-17T11:27:22.369Z,99871.16
2023-04-17T11:29:48.918Z,99867.88
2023-04-17T11:32:15.608Z,99870.16
2023-04-17T11:34:42.590Z,99872.56
2023-04-17T11:37:13.368Z,99868.66
2023-04-17T11:39:42.015Z,99861.44
2023-04-17T11:42:08.638Z,99852.72
2023-04-17T11:44:35.183Z,99860.16
2023-04-17T11:47:02.003Z,99856.88
2023-04-17T11:49:29.892Z,99860.72
2023-04-17T11:52:00.912Z,99867.81
2023-04-17T11:54:28.538Z,99859.13
2023-04-17T11:57:05.266Z,99865.16
2023-04-17T11:59:32.034Z,99864.97
2023-04-17T12:02:00.834Z,99856.47
2023-04-17T12:04:29.296Z,99867.34
2023-04-17T12:06:57.976Z,99855.97
2023-04-17T12:09:31.715Z,99847.50
2023-04-17T12:11:59.269Z,99852.81
2023-04-17T12:14:26.502Z,99845.41
2023-04-17T12:16:53.391Z,99839.25
2023-04-17T12:19:21.867Z,99838.41
2023-04-17T12:21:48.423Z,99841.50
2023-04-17T12:24:15.538Z,99849.16
2023-04-17T12:26:46.864Z,99835.91
2023-04-17T12:29:14.171Z,99845.53
2023-04-17T12:31:41.281Z,99835.91
2023-04-17T12:34:08.019Z,99822.16
2023-04-17T12:36:34.916Z,99826.50
2023-04-17T12:39:01.637Z,99821.03
2023-04-17T12:41:28.179Z,99829.13
2023-04-17T12:43:54.831Z,99815.41
2023-04-17T12:46:21.702Z,99809.56
2023-04-17T12:48:48.252Z,99810.03
2023-04-17T12:51:15.253Z,99808.69
2023-04-17T12:53:41.734Z,99801.19
2023-04-17T12:56:08.329Z,99790.28
2023-04-17T12:58:35.049Z,99784.22
2023-04-17T13:01:04.756Z,99803.91
2023-04-17T13:03:31.339Z,99790.50
2023-04-17T13:05:58.883Z,99788.78
2023-04-17T13:08:25.309Z,99785.16
2023-04-17T13:10:51.891Z,99792.38
2023-04-17T13:13:18.541Z,99792.97
2023-04-17T13:15:48.012Z,99786.91
2023-04-17T13:18:14.718Z,99804.91
2023-04-17T13:20:41.354Z,99782.06
2023-04-17T13:23:07.948Z,99795.19
2023-04-17T13:25:34.549Z,99778.41
2023-04-17T13:28:01.696Z,99789.06
2023-04-17T13:30:28.250Z,99792.50
2023-04-17T13:32:55.121Z,99786.91
2023-04-17T13:35:21.555Z,99788.28
2023-04-17T13:37:48.140Z,99786.09
2023-04-17T13:40:17.509Z,99796.69
2023-04-17T13:42:45.398Z,99784.28
2023-04-17T13:45:12.478Z,99790.94
2023-04-17T13:47:39.260Z,99800.06
2023-04-17T13:50:06.536Z,99794.88
2023-04-17T13:52:35.688Z,99782.69
2023-04-17T13:55:02.537Z,99784.66
2023-04-17T13:57:29.126Z,99777.97
2023-04-17T13:59:55.794Z,99777.53
2023-04-17T14:02:22.527Z,99775.09
2023-04-17T14:04:49.349Z,99802.84
2023-04-17T14:07:16.376Z,99796.97
2023-04-17T14:09:42.908Z,99791.81
2023-04-17T14:12:10.876Z,99786.78
2023-04-17T14:14:37.509Z,99806.50
2023-04-17T14:17:04.278Z,99784.38
2023-04-17T14:19:31.228Z,99796.16
2023-04-17T14:21:57.854Z,99810.13
2023-04-17T14:24:24.459Z,99812.38
2023-04-17T14:26:51.143Z,99817.41
2023-04-17T14:29:17.782Z,99812.38
2023-04-17T14:31:44.422Z,99808.03
2023-04-17T14:34:11.163Z,99809.56
2023-04-17T14:36:37.786Z,99813.78
2023-04-17T14:39:04.485Z,99816.88
2023-04-17T14:41:35.953Z,99814.34
2023-04-17T14:44:02.529Z,99805.09
2023-04-17T14:46:29.272Z,99816.56
2023-04-17T14:49:10.002Z,99815.47
2023-04-17T14:51:36.716Z,99807.47
2023-04-17T14:54:03.431Z,99809.25
2023-04-17T14:56:29.983Z,99805.78
2023-04-17T14:58:57.615Z,99798.63
2023-04-17T15:01:24.066Z,99802.31
2023-04-17T15:03:51.265Z,99800.88
2023-04-17T15:06:18.963Z,99805.78
2023-04-17T15:08:46.258Z,99797.53
2023-04-17T15:11:13.097Z,99797.81
2023-04-17T15:13:40.639Z,99800.06
2023-04-17T15:16:09.265Z,99800.09
2023-04-17T15:18:36.274Z,99803.69
2023-04-17T15:21:02.755Z,99812.16
2023-04-17T15:23:30.071Z,99803.13
2023-04-17T15:25:58.000Z,99803.13
2023-04-17T15:28:28.596Z,99803.00
2023-04-17T15:30:55.989Z,99797.25
2023-04-17T15:33:23.177Z,99792.47
2023-04-17T15:35:53.986Z,99803.06
2023-04-17T15:38:20.557Z,99801.13
2023-04-17T15:40:47.402Z,99788.84
2023-04-17T15:43:14.054Z,99804.22
2023-04-17T15:45:40.973Z,99797.25
2023-04-17T15:48:07.552Z,99797.16
2023-04-17T15:50:35.467Z,99788.00
2023-04-17T15:53:02.097Z,99791.38
2023-04-17T15:55:30.961Z,99786.50
2023-04-17T15:57:57.573Z,99797.09
2023-04-17T16:00:24.146Z,99792.19
2023-04-17T16:02:51.925Z,99806.50
2023-04-17T16:05:18.874Z,99802.22
2023-04-17T16:07:45.706Z,99792.19
2023-04-17T16:10:15.749Z,99782.41
2023-04-17T16:12:43.364Z,99796.97
2023-04-17T16:15:11.438Z,99792.22
2023-04-17T16:17:38.101Z,99798.63
2023-04-17T16:20:05.018Z,99797.41
2023-04-17T16:22:36.176Z,99806.16
2023-04-17T16:25:02.992Z,99796.75
2023-04-17T16:27:30.297Z,99794.94
2023-04-17T16:29:56.845Z,99795.34
2023-04-17T16:32:24.663Z,99792.44
2023-04-17T16:34:51.513Z,99796.72
2023-04-17T16:37:18.075Z,99790.69
2023-04-17T16:39:44.890Z,99783.84
2023-04-17T16:42:11.656Z,99786.69
2023-04-17T16:44:38.100Z,99782.16
2023-04-17T16:47:13.406Z,99774.00
2023-04-17T16:49:42.989Z,99786.88
2023-04-17T16:52:09.767Z,99788.16
2023-04-17T16:54:37.015Z,99783.31
2023-04-17T16:57:05.305Z,99788.53
2023-04-17T16:59:32.283Z,99792.38
2023-04-17T17:02:00.121Z,99787.06
2023-04-17T17:04:28.421Z,99795.47
2023-04-17T17:06:55.158Z,99791.81
2023-04-17T17:09:21.781Z,99800.19
2023-04-17T17:11:48.326Z,99783.31
2023-04-17T17:14:16.237Z,99764.00
2023-04-17T17:16:47.168Z,99766.63
2023-04-17T17:19:14.759Z,99766.63
2023-04-17T17:21:41.742Z,99767.38
2023-04-17T17:24:08.327Z,99758.72
2023-04-17T17:26:37.090Z,99754.13
2023-04-17T17:29:03.827Z,99756.78
2023-04-17T17:31:30.503Z,99761.16
2023-04-17T17:33:57.813Z,99754.16
2023-04-17T17:36:26.360Z,99769.50
2023-04-17T17:38:56.050Z,99755.19
2023-04-17T17:41:28.888Z,99750.16
2023-04-17T17:43:56.604Z,99753.88
2023-04-17T17:46:24.433Z,99736.47
2023-04-17T17:48:51.144Z,99742.25
2023-04-17T17:51:17.699Z,99730.66
2023-04-17T17:53:44.165Z,99724.16
2023-04-17T17:56:10.610Z,99715.97
2023-04-17T17:58:37.066Z,99714.66
2023-04-17T18:01:03.821Z,99699.03
2023-04-17T18:03:30.728Z,99681.50
2023-04-17T18:05:57.876Z,99662.03
2023-04-17T18:08:24.359Z,99643.38
2023-04-17T18:10:55.407Z,99626.56
2023-04-17T18:13:23.398Z,99608.94
2023-04-17T18:15:49.991Z,99586.31
2023-04-17T18:18:16.531Z,99528.88
2023-04-17T18:20:43.033Z,99474.44
2023-04-17T18:23:09.520Z,99427.47
2023-04-17T18:25:39.627Z,99332.78
2023-04-17T18:28:06.668Z,99309.47
2023-04-17T18:30:33.801Z,99293.16
2023-04-17T18:33:00.729Z,99242.22
2023-04-17T18:35:27.904Z,99220.91
2023-04-17T18:37:54.498Z,99193.50
2023-04-17T18:40:21.197Z,99153.53
2023-04-17T18:42:48.056Z,99087.16
2023-04-17T18:45:16.188Z,98894.13
2023-04-17T18:47:43.121Z,98744.09
2023-04-17T18:50:10.369Z,98736.84
2023-04-17T18:52:38.721Z,98716.16
2023-04-17T18:55:06.180Z,98696.69
2023-04-17T18:57:32.816Z,98678.78
2023-04-17T18:59:59.381Z,98661.69
2023-04-17T19:02:25.891Z,98646.16
2023-04-17T19:04:53.445Z,98631.41
2023-04-17T19:07:22.247Z,98622.38
2023-04-17T19:09:48.915Z,98607.56
2023-04-17T19:12:15.427Z,98604.50
2023-04-17T19:14:43.025Z,98595.06
2023-04-17T19:17:09.645Z,98616.88
2023-04-17T19:19:36.430Z,98642.25
2023-04-17T19:22:03.578Z,98722.06
2023-04-17T19:24:30.535Z,98775.22
2023-04-17T19:26:58.027Z,98774.53
2023-04-17T19:29:25.320Z,98781.72
2023-04-17T19:31:52.124Z,98801.28
2023-04-17T19:34:18.712Z,98795.03
2023-04-17T19:36:45.477Z,98801.25
2023-04-17T19:39:12.758Z,98807.19
2023-04-17T19:41:39.630Z,98805.66
2023-04-17T19:44:06.129Z,98804.97
2023-04-17T19:46:33.263Z,98811.78
2023-04-17T19:48:59.919Z,98808.75
2023-04-17T19:51:26.673Z,98809.25
2023-04-17T19:53:53.755Z,98815.31
2023-04-17T19:56:21.488Z,98791.66
2023-04-17T19:58:48.276Z,98816.13
2023-04-17T20:01:15.190Z,98813.88
2023-04-17T20:03:43.910Z,98821.09
2023-04-17T20:06:10.730Z,98806.38
2023-04-17T20:08:39.516Z,98809.00
2023-04-17T20:11:06.762Z,98809.94
2023-04-17T20:13:36.491Z,98802.03
2023-04-17T20:16:03.172Z,98796.41
2023-04-17T20:18:30.287Z,98792.34
2023-04-17T20:20:57.596Z,98783.47
2023-04-17T20:23:24.873Z,98784.19
2023-04-17T20:25:51.772Z,98780.59
2023-04-17T20:28:18.762Z,98774.81
2023-04-17T20:30:45.518Z,98764.06
2023-04-17T20:33:12.237Z,98770.38
2023-04-17T20:35:39.437Z,98775.31
2023-04-17T20:38:05.975Z,98771.00
2023-04-17T20:40:33.049Z,98760.78
2023-04-17T20:42:59.753Z,98759.00
2023-04-17T20:45:26.801Z,98743.34
2023-04-17T20:47:57.033Z,98733.06
2023-04-17T20:50:24.853Z,98738.06
2023-04-17T20:52:52.160Z,98729.88
2023-04-17T20:55:20.431Z,98724.31
2023-04-17T20:57:47.467Z,98717.50
2023-04-17T21:00:14.132Z,98707.22
2023-04-17T21:02:41.477Z,98703.22
2023-04-17T21:05:08.527Z,98698.38
2023-04-17T21:07:35.389Z,98695.72
2023-04-17T21:10:02.139Z,98694.47
2023-04-17T21:12:28.821Z,98689.72
2023-04-17T21:14:55.661Z,98693.78
2023-04-17T21:17:26.169Z,98686.00
2023-04-17T21:19:53.059Z,98685.38
2023-04-17T21:22:19.810Z,98692.88
2023-04-17T21:24:46.534Z,98697.00
2023-04-17T21:27:13.101Z,98690.09
2023-04-17T21:29:41.424Z,98694.75
2023-04-17T21:32:08.400Z,98684.00
2023-04-17T21:34:35.078Z,98681.75
2023-04-17T21:37:03.886Z,98680.38
2023-04-17T21:39:33.072Z,98666.50
2023-04-17T21:42:00.380Z,98656.53
2023-04-17T21:44:27.129Z,98651.38
2023-04-17T21:46:54.201Z,98647.41
2023-04-17T21:49:24.565Z,98641.59
2023-04-17T21:51:51.429Z,98640.06
2023-04-17T21:54:17.936Z,98620.34
2023-04-17T21:56:44.419Z,98615.25
2023-04-17T21:59:10.786Z,98609.13
2023-04-17T22:01:37.647Z,98584.69
2023-04-17T22:04:04.353Z,98569.28
2023-04-17T22:06:34.455Z,98554.63
2023-04-17T22:09:02.069Z,98538.91
2023-04-17T22:11:28.670Z,98524.47
2023-04-17T22:13:55.494Z,98507.44
2023-04-17T22:16:22.341Z,98487.03
2023-04-17T22:18:48.857Z,98471.69
2023-04-17T22:21:15.682Z,98453.22
2023-04-17T22:23:42.637Z,98438.50
2023-04-17T22:26:09.182Z,98414.09
2023-04-17T22:28:37.049Z,98406.31
2023-04-17T22:31:03.589Z,98389.41
2023-04-17T22:33:30.420Z,98362.78
2023-04-17T22:35:57.220Z,98340.16
2023-04-17T22:38:24.201Z,98310.94
2023-04-17T22:40:50.898Z,98272.38
2023-04-17T22:43:17.817Z,98243.28
2023-04-17T22:45:44.694Z,98237.72
2023-04-17T22:48:11.585Z,98249.38
2023-04-17T22:50:38.365Z,98254.81
2023-04-17T22:53:05.865Z,98266.03
2023-04-17T22:55:32.687Z,98294.31
2023-04-17T22:58:00.159Z,98334.53
2023-04-17T23:00:26.785Z,98356.16
2023-04-17T23:02:55.999Z,98393.16
2023-04-17T23:05:23.110Z,98421.28
2023-04-17T23:07:49.787Z,98447.91
2023-04-17T23:10:18.297Z,98467.44
2023-04-17T23:12:44.939Z,98487.38
2023-04-17T23:15:12.248Z,98511.03
2023-04-17T23:17:39.043Z,98495.22
2023-04-17T23:20:06.153Z,98495.75
2023-04-17T23:22:33.163Z,98485.94
2023-04-17T23:25:00.193Z,98473.59
2023-04-17T23:27:26.972Z,98466.38
2023-04-17T23:29:54.019Z,98440.91
2023-04-17T23:32:20.714Z,98420.41
2023-04-17T23:34:47.554Z,98419.31
2023-04-17T23:37:14.144Z,98408.78
2023-04-17T23:39:40.859Z,98401.81
2023-04-17T23:42:08.120Z,98389.88
2023-04-17T23:44:34.911Z,98395.00
2023-04-17T23:47:02.271Z,98399.03
2023-04-17T23:49:29.023Z,98398.19
2023-04-17T23:51:58.973Z,98398.47
2023-04-17T23:54:25.874Z,98404.81
2023-04-17T23:56:55.926Z,98406.25
2023-04-17T23:59:22.584Z,98390.66
